Time;durP1;ratioP1;P1;durP2;ratioP2;P2;SDS_P1;SDS_P2;PMS_P1;PMS_P2;Temp;Humidity;BMP_temperature;BMP_pressure;BME280_temperature;BME280_humidity;BME280_pressure;Samples;Min_cycle;Max_cycle;Signal;HPM_P1;HPM_P2
2021/03/08 00:02:08;;;;;;;37.40;26.35;;;;;;;0.15;68.65;96503.62;1696129;82;21561;-80
2021/03/08 00:04:35;;;;;;;44.63;29.42;;;;;;;0.15;68.67;96502.34;1753824;82;21150;-80
2021/03/08 00:07:01;;;;;;;43.20;26.95;;;;;;;0.12;68.38;96497.47;1754312;82;21130;-79
2021/03/08 00:09:27;;;;;;;40.35;26.48;;;;;;;0.13;68.64;96509.31;1724766;82;21126;-80
2021/03/08 00:11:52;;;;;;;37.58;25.05;;;;;;;0.13;68.53;96500.37;1754359;82;21134;-79
2021/03/08 00:14:19;;;;;;;25.70;18.75;;;;;;;0.12;68.54;96502.11;1754373;82;21122;-79
2021/03/08 00:16:45;;;;;;;46.53;31.52;;;;;;;0.05;68.58;96500.95;1754370;82;21431;-79
2021/03/08 00:19:10;;;;;;;61.55;37.90;;;;;;;-0.13;68.38;96499.77;1754278;81;21121;-79
2021/03/08 00:21:37;;;;;;;38.40;25.32;;;;;;;-0.17;68.54;96497.06;1754318;82;21158;-79
2021/03/08 00:24:03;;;;;;;36.55;23.67;;;;;;;-0.24;68.42;96500.54;1754229;82;21102;-79
2021/03/08 00:26:29;;;;;;;33.60;24.02;;;;;;;-0.29;68.55;96499.26;1754355;81;21495;-79
2021/03/08 00:28:55;;;;;;;29.10;22.55;;;;;;;-0.28;68.60;96497.87;1754967;81;21248;-79
2021/03/08 00:31:21;;;;;;;35.08;22.60;;;;;;;-0.29;68.88;96495.43;1755172;82;21365;-80
2021/03/08 00:33:48;;;;;;;32.10;22.73;;;;;;;-0.35;69.08;96493.66;1755145;82;21268;-79
2021/03/08 00:36:14;;;;;;;30.85;21.87;;;;;;;-0.41;69.12;96481.81;1755062;81;21264;-79
2021/03/08 00:38:40;;;;;;;34.13;22.37;;;;;;;-0.47;69.15;96483.54;1754401;82;21132;-79
2021/03/08 00:41:06;;;;;;;33.30;22.65;;;;;;;-0.51;69.40;96479.56;1754549;81;21138;-79
2021/03/08 00:43:32;;;;;;;29.90;20.62;;;;;;;-0.58;69.43;96480.48;1754500;81;21094;-80
2021/03/08 00:45:58;;;;;;;31.42;20.27;;;;;;;-0.59;69.51;96481.41;1754665;81;21417;-80
2021/03/08 00:48:24;;;;;;;29.20;21.42;;;;;;;-0.59;69.45;96478.85;1754482;81;21268;-80
2021/03/08 00:50:50;;;;;;;31.80;21.90;;;;;;;-0.63;69.53;96475.72;1754593;81;21404;-79
2021/03/08 00:53:16;;;;;;;32.17;21.15;;;;;;;-0.65;69.62;96478.84;1754598;81;21348;-79
2021/03/08 00:55:42;;;;;;;38.10;23.60;;;;;;;-0.70;69.85;96475.78;1754716;81;21147;-79
2021/03/08 00:58:08;;;;;;;33.23;22.70;;;;;;;-0.72;69.95;96478.91;1754472;81;21228;-79
2021/03/08 01:00:34;;;;;;;35.15;22.70;;;;;;;-0.73;70.24;96481.58;1754266;81;21134;-79
2021/03/08 01:03:00;;;;;;;32.17;23.67;;;;;;;-0.73;70.23;96486.22;1754494;81;21138;-79
2021/03/08 01:05:26;;;;;;;36.80;23.32;;;;;;;-0.71;70.24;96475.90;1754471;81;21122;-79
2021/03/08 01:07:52;;;;;;;37.75;26.17;;;;;;;-0.72;70.46;96477.64;1754578;81;21122;-79
2021/03/08 01:10:21;;;;;;;36.25;24.67;;;;;;;-0.66;70.65;96475.09;1754598;81;21264;-79
2021/03/08 01:12:47;;;;;;;33.73;23.42;;;;;;;-0.65;70.66;96476.30;1755184;81;21132;-79
2021/03/08 01:15:14;;;;;;;33.88;24.18;;;;;;;-0.62;70.63;96476.53;1755210;81;21098;-79
2021/03/08 01:17:40;;;;;;;34.67;24.07;;;;;;;-0.63;70.54;96469.33;1755197;82;21110;-79
2021/03/08 01:20:10;;;;;;;37.85;24.32;;;;;;;-0.58;70.21;96471.55;1755244;81;21119;-79
2021/03/08 01:22:36;;;;;;;32.98;24.10;;;;;;;-0.56;70.08;96470.16;1754409;82;21137;-79
2021/03/08 01:25:10;;;;;;;32.23;22.65;;;;;;;-0.59;70.00;96469.11;1755241;81;21087;-79
2021/03/08 01:27:36;;;;;;;36.42;25.50;;;;;;;-0.62;70.16;96470.15;1744588;82;21323;-79
2021/03/08 01:30:10;;;;;;;34.58;23.83;;;;;;;-0.66;70.12;96469.53;1741116;82;21123;-79
2021/03/08 01:32:36;;;;;;;30.85;23.70;;;;;;;-0.69;70.04;96471.50;1740833;81;21239;-79
2021/03/08 01:35:03;;;;;;;35.03;23.27;;;;;;;-0.67;70.07;96469.18;1741152;82;21119;-79
2021/03/08 01:37:30;;;;;;;33.63;23.70;;;;;;;-0.60;70.10;96461.91;1740632;82;21334;-79
2021/03/08 01:39:57;;;;;;;36.68;23.95;;;;;;;-0.54;69.97;96468.30;1740450;82;21361;-79
2021/03/08 01:42:23;;;;;;;35.05;25.48;;;;;;;-0.55;69.92;96462.84;1740739;82;21146;-79
2021/03/08 01:44:49;;;;;;;33.23;22.62;;;;;;;-0.54;69.93;96465.28;1740366;82;21344;-79
2021/03/08 01:47:15;;;;;;;36.25;24.18;;;;;;;-0.58;69.87;96464.35;1740513;82;21321;-79
2021/03/08 01:49:41;;;;;;;34.92;24.95;;;;;;;-0.56;70.04;96465.86;1740418;82;21365;-79
2021/03/08 01:52:11;;;;;;;32.65;24.92;;;;;;;-0.52;69.90;96463.44;1740619;82;21229;-79
2021/03/08 01:54:37;;;;;;;41.98;26.15;;;;;;;-0.47;69.90;96462.66;1740169;82;21163;-79
2021/03/08 01:57:04;;;;;;;39.53;23.40;;;;;;;-0.42;69.78;96465.68;1740449;82;21261;-79
2021/03/08 01:59:30;;;;;;;32.63;23.25;;;;;;;-0.37;69.81;96462.78;1719798;82;21163;-79
2021/03/08 02:01:56;;;;;;;34.03;22.65;;;;;;;-0.36;69.65;96461.39;1740215;82;21166;-79
2021/03/08 02:04:22;;;;;;;29.60;21.50;;;;;;;-0.38;69.65;96457.33;1720543;82;21107;-79
2021/03/08 02:06:48;;;;;;;36.38;23.62;;;;;;;-0.39;69.58;96455.23;1741081;82;21130;-79
2021/03/08 02:09:14;;;;;;;28.42;22.70;;;;;;;-0.34;69.52;96459.53;1741115;82;21103;-79
2021/03/08 02:11:40;;;;;;;32.40;23.32;;;;;;;-0.31;69.46;96455.50;1741417;82;21430;-79
2021/03/08 02:14:38;;;;;;;34.53;24.12;;;;;;;-0.33;69.34;96452.69;1741120;82;21123;-79
2021/03/08 02:17:15;;;;;;;34.88;24.72;;;;;;;-0.36;69.19;96455.00;1741234;82;21155;-79
2021/03/08 02:20:04;;;;;;;31.62;22.30;;;;;;;-0.33;69.31;96454.81;1741407;82;21079;-79
2021/03/08 02:23:06;;;;;;;30.32;21.57;;;;;;;-0.27;69.32;96454.00;1741254;82;21233;-79
2021/03/08 02:26:20;;;;;;;31.25;23.95;;;;;;;-0.23;69.26;96448.54;1824676;77;22561;-79
2021/03/08 02:29:04;;;;;;;42.93;25.23;;;;;;;-0.26;69.19;96451.79;1828364;78;21275;-79
2021/03/08 02:31:31;;;;;;;30.45;23.85;;;;;;;-0.27;69.31;96443.31;1828700;78;21094;-79
2021/03/08 02:34:09;;;;;;;35.83;24.35;;;;;;;-0.31;69.39;96443.20;1829379;78;21340;-79
2021/03/08 02:36:38;;;;;;;37.53;25.65;;;;;;;-0.32;69.48;96447.95;1829335;78;21113;-79
2021/03/08 02:39:14;;;;;;;39.05;26.23;;;;;;;-0.27;69.26;96437.40;1829227;78;21220;-79
2021/03/08 02:41:40;;;;;;;35.17;23.77;;;;;;;-0.25;69.36;96437.62;1793368;80;21106;-79
2021/03/08 02:44:09;;;;;;;32.45;22.95;;;;;;;-0.24;69.23;96432.05;1734368;81;21161;-79
2021/03/08 02:46:37;;;;;;;31.12;23.85;;;;;;;-0.27;69.22;96437.40;1771642;81;21341;-79
2021/03/08 02:49:13;;;;;;;30.08;23.47;;;;;;;-0.23;69.21;96433.68;1771799;81;21317;-79
2021/03/08 02:51:47;;;;;;;29.35;21.65;;;;;;;-0.23;69.25;96427.30;1771691;81;21074;-79
2021/03/08 02:54:14;;;;;;;24.35;17.57;;;;;;;-0.17;69.22;96426.36;1771622;81;22076;-79
2021/03/08 02:56:40;;;;;;;27.13;19.95;;;;;;;-0.21;68.84;96427.53;1771303;81;21138;-79
2021/03/08 02:59:07;;;;;;;25.20;18.05;;;;;;;-0.31;68.78;96432.52;1743688;81;21132;-79
2021/03/08 03:01:34;;;;;;;33.85;21.40;;;;;;;-0.36;68.87;96428.20;1771693;81;21077;-79
2021/03/08 03:04:00;;;;;;;31.12;21.27;;;;;;;-0.40;68.98;96434.47;1743862;81;21269;-79
2021/03/08 03:06:34;;;;;;;32.65;22.87;;;;;;;-0.42;68.98;96426.11;1719087;81;21117;-79
2021/03/08 03:09:05;;;;;;;33.70;23.47;;;;;;;-0.44;68.99;96430.98;1744454;81;21114;-79
2021/03/08 03:11:31;;;;;;;31.95;23.75;;;;;;;-0.42;69.14;96433.77;1768995;81;21105;-79
2021/03/08 03:13:57;;;;;;;37.30;24.65;;;;;;;-0.34;69.45;96437.02;1771645;81;21312;-79
2021/03/08 03:16:23;;;;;;;37.48;24.92;;;;;;;-0.30;69.40;96437.16;1771668;81;21233;-79
2021/03/08 03:18:52;;;;;;;36.10;24.85;;;;;;;-0.29;69.29;96431.12;1771515;81;21347;-79
2021/03/08 03:21:19;;;;;;;32.98;23.90;;;;;;;-0.35;69.11;96436.67;1771692;81;21345;-79
2021/03/08 03:23:47;;;;;;;30.68;22.80;;;;;;;-0.32;69.36;96431.36;1770245;81;21216;-79
2021/03/08 03:26:13;;;;;;;26.48;20.30;;;;;;;-0.35;69.03;96432.84;1751230;82;21318;-79
2021/03/08 03:28:40;;;;;;;26.30;19.27;;;;;;;-0.37;69.23;96430.41;1820619;79;21137;-80
2021/03/08 03:31:05;;;;;;;26.55;19.75;;;;;;;-0.36;69.17;96429.48;1726362;80;21118;-79
2021/03/08 03:33:33;;;;;;;31.62;22.80;;;;;;;-0.39;69.11;96427.62;1781257;80;21123;-79
2021/03/08 03:35:59;;;;;;;25.35;20.45;;;;;;;-0.40;69.10;96425.99;1721219;82;21157;-79
2021/03/08 03:38:25;;;;;;;27.75;20.68;;;;;;;-0.42;69.21;96430.41;1819649;78;21126;-80
2021/03/08 03:40:51;;;;;;;25.90;19.23;;;;;;;-0.41;69.45;96428.20;1819406;79;21087;-79
2021/03/08 03:43:17;;;;;;;28.02;21.10;;;;;;;-0.42;69.42;96428.66;1787361;79;21280;-79
2021/03/08 03:45:43;;;;;;;28.85;21.30;;;;;;;-0.43;69.40;96424.95;1819508;79;21122;-79
2021/03/08 03:48:09;;;;;;;28.02;20.85;;;;;;;-0.45;69.34;96426.34;1819610;79;21122;-79
2021/03/08 03:50:36;;;;;;;24.18;18.87;;;;;;;-0.39;69.48;96422.05;1780762;80;21146;-79
2021/03/08 03:53:06;;;;;;;24.25;19.90;;;;;;;-0.40;69.41;96420.89;1780332;80;21118;-79
2021/03/08 03:55:32;;;;;;;22.25;17.98;;;;;;;-0.42;69.55;96419.73;1750722;80;21260;-79
2021/03/08 03:58:21;;;;;;;22.62;17.00;;;;;;;-0.43;69.71;96426.23;1781505;80;21417;-79
2021/03/08 04:01:05;;;;;;;22.60;15.32;;;;;;;-0.48;69.54;96428.31;1780604;80;21316;-79
2021/03/08 04:03:41;;;;;;;21.30;15.72;;;;;;;-0.47;69.77;96421.81;1758549;80;21150;-79
2021/03/08 04:06:07;;;;;;;23.83;17.55;;;;;;;-0.47;69.65;96421.81;1779730;80;21458;-79
2021/03/08 04:08:33;;;;;;;21.25;14.78;;;;;;;-0.48;69.76;96415.09;1819685;79;21122;-79
2021/03/08 04:11:03;;;;;;;20.68;16.37;;;;;;;-0.48;69.67;96423.20;1750070;82;21259;-79
2021/03/08 04:13:30;;;;;;;23.38;16.73;;;;;;;-0.52;69.87;96417.95;1750674;82;21245;-79
2021/03/08 04:15:56;;;;;;;19.07;15.08;;;;;;;-0.54;69.96;96413.42;1727801;82;21090;-79
2021/03/08 04:18:23;;;;;;;18.70;14.38;;;;;;;-0.56;70.02;96415.28;1750631;82;21095;-80
2021/03/08 04:20:49;;;;;;;21.73;15.35;;;;;;;-0.58;69.79;96412.03;1820245;79;21301;-79
2021/03/08 04:23:15;;;;;;;19.02;14.58;;;;;;;-0.57;70.02;96421.31;1820294;79;21078;-79
2021/03/08 04:25:45;;;;;;;19.67;15.25;;;;;;;-0.56;70.06;96421.20;1819343;79;21149;-80
2021/03/08 04:28:11;;;;;;;16.75;13.50;;;;;;;-0.57;69.98;96418.30;1819468;79;21094;-79
2021/03/08 04:30:37;;;;;;;18.73;13.10;;;;;;;-0.55;70.14;96406.70;1819448;79;21328;-79
2021/03/08 04:33:03;;;;;;;18.27;14.03;;;;;;;-0.55;70.03;96413.08;1780789;80;21288;-79
2021/03/08 04:35:31;;;;;;;17.15;13.43;;;;;;;-0.57;69.73;96402.17;1725810;80;21441;-79
2021/03/08 04:37:57;;;;;;;19.17;14.43;;;;;;;-0.58;70.12;96400.09;1762837;79;21356;-79
2021/03/08 04:40:23;;;;;;;13.48;10.85;;;;;;;-0.58;70.01;96397.53;1787547;79;21440;-79
2021/03/08 04:42:49;;;;;;;17.40;15.48;;;;;;;-0.58;70.01;96390.34;1819431;79;21150;-80
2021/03/08 04:45:19;;;;;;;12.90;10.80;;;;;;;-0.57;69.94;96402.98;1761881;79;21528;-79
2021/03/08 04:47:45;;;;;;;17.62;14.58;;;;;;;-0.55;69.86;96402.87;1820348;78;21129;-79
2021/03/08 04:50:13;;;;;;;19.65;14.68;;;;;;;-0.52;69.91;96411.57;1721469;82;21117;-79
2021/03/08 04:52:39;;;;;;;17.07;13.72;;;;;;;-0.46;70.15;96420.08;1781400;80;21118;-79
2021/03/08 04:55:08;;;;;;;18.55;14.65;;;;;;;-0.37;70.12;96416.83;1781501;80;21138;-80
2021/03/08 04:57:35;;;;;;;19.27;14.90;;;;;;;-0.32;70.01;96408.38;1781327;80;21409;-79
2021/03/08 05:00:03;;;;;;;20.57;16.82;;;;;;;-0.25;70.09;96417.20;1788196;79;21125;-80
2021/03/08 05:02:29;;;;;;;23.38;16.12;;;;;;;-0.18;70.17;96411.97;1751629;80;21129;-80
2021/03/08 05:04:55;;;;;;;22.45;16.60;;;;;;;-0.11;70.07;96407.23;1781517;80;21284;-80
2021/03/08 05:07:24;;;;;;;22.98;18.62;;;;;;;-0.10;70.07;96403.75;1781429;80;21333;-80
2021/03/08 05:09:51;;;;;;;22.75;17.17;;;;;;;-0.05;69.86;96408.85;1781605;80;21126;-80
2021/03/08 05:12:17;;;;;;;21.25;17.70;;;;;;;-0.05;69.60;96408.04;1781430;80;21118;-80
2021/03/08 05:14:43;;;;;;;21.25;17.12;;;;;;;-0.09;69.53;96406.66;1750680;82;21121;-80
2021/03/08 05:17:09;;;;;;;22.67;15.70;;;;;;;-0.07;69.60;96406.88;1820204;78;21325;-80
2021/03/08 05:19:36;;;;;;;21.10;16.87;;;;;;;-0.07;69.30;96408.16;1820231;79;21121;-80
2021/03/08 05:22:03;;;;;;;23.22;16.82;;;;;;;-0.05;69.58;96410.13;1781468;80;21090;-80
2021/03/08 05:24:29;;;;;;;23.38;16.77;;;;;;;0.00;69.45;96417.47;1781382;80;21122;-80
2021/03/08 05:26:55;;;;;;;23.67;17.52;;;;;;;0.01;69.51;96419.09;1781386;80;21318;-80
2021/03/08 05:29:21;;;;;;;24.65;20.40;;;;;;;0.05;69.42;96420.95;1781364;80;21325;-80
2021/03/08 05:31:47;;;;;;;27.27;21.07;;;;;;;0.08;69.42;96426.63;1781445;80;21110;-80
2021/03/08 05:34:16;;;;;;;25.23;18.57;;;;;;;0.13;69.38;96424.99;1781409;80;21135;-80
2021/03/08 05:36:44;;;;;;;26.77;19.30;;;;;;;0.18;69.37;96435.23;1750764;82;21324;-80
2021/03/08 05:39:11;;;;;;;28.65;21.55;;;;;;;0.21;69.23;96434.19;1819582;78;21130;-80
2021/03/08 05:42:03;;;;;;;26.45;18.50;;;;;;;0.17;69.00;96434.08;1781492;80;21334;-80
2021/03/08 05:44:29;;;;;;;71.47;52.23;;;;;;;0.17;69.00;96434.08;1774846;80;21123;-80
2021/03/08 05:47:38;;;;;;;44.98;33.70;;;;;;;0.18;69.03;96433.96;1781447;80;21233;-80
2021/03/08 05:50:25;;;;;;;69.42;48.58;;;;;;;0.22;69.13;96441.73;1694445;84;21135;-80
2021/03/08 05:53:20;;;;;;;43.85;39.40;;;;;;;0.20;68.94;96439.77;1730411;83;21153;-80
2021/03/08 05:56:03;;;;;;;27.48;23.12;;;;;;;0.17;68.84;96443.02;1756672;80;21155;-80
2021/03/08 05:58:47;;;;;;;24.30;20.72;;;;;;;0.16;69.02;96443.92;1780757;80;21142;-80
2021/03/08 06:01:27;;;;;;;24.80;19.25;;;;;;;0.14;69.01;96446.59;1780298;80;21391;-80
2021/03/08 06:04:28;;;;;;;23.98;18.17;;;;;;;0.14;69.06;96444.04;1780744;80;21154;-80
2021/03/08 06:07:18;;;;;;;28.40;19.15;;;;;;;0.16;68.87;96443.48;1819255;79;21140;-80
2021/03/08 06:10:07;;;;;;;24.75;17.60;;;;;;;0.16;69.20;96452.43;1751842;79;21237;-80
2021/03/08 06:12:38;;;;;;;27.77;18.80;;;;;;;0.23;69.08;96452.77;1781493;80;21237;-80
2021/03/08 06:15:10;;;;;;;28.35;19.20;;;;;;;0.29;69.18;96459.49;1780862;80;21268;-80
2021/03/08 06:17:37;;;;;;;;;;;;;;;0.32;69.07;96461.00;1784221;80;21229;-80
2021/03/08 06:20:06;;;;;;;23.10;18.20;;;;;;;0.25;68.58;96464.50;1748425;82;20218;-80
2021/03/08 06:22:33;;;;;;;24.12;18.07;;;;;;;0.15;68.75;96469.94;1748184;82;21134;-80
2021/03/08 06:24:59;;;;;;;24.85;17.70;;;;;;;0.11;68.82;96476.68;1820145;78;21114;-80
2021/03/08 06:27:25;;;;;;;29.20;19.02;;;;;;;0.05;68.83;96476.69;1820256;79;21249;-80
2021/03/08 06:29:52;;;;;;;26.80;19.02;;;;;;;-0.01;69.01;96473.29;1819488;79;21154;-80
2021/03/08 06:32:18;;;;;;;28.25;20.23;;;;;;;0.01;69.31;96478.31;1820229;79;21216;-80
2021/03/08 06:34:45;;;;;;;32.55;23.00;;;;;;;0.02;69.50;96481.22;1820169;79;21094;-80
2021/03/08 06:37:12;;;;;;;41.08;26.75;;;;;;;0.03;69.57;96480.28;1788128;79;21837;-80
2021/03/08 06:39:40;;;;;;;56.83;38.78;;;;;;;0.02;69.74;96478.20;1820108;79;21083;-80
2021/03/08 06:42:08;;;;;;;49.15;34.30;;;;;;;0.03;69.93;96484.93;1820147;79;21131;-80
2021/03/08 06:44:34;;;;;;;35.00;22.65;;;;;;;0.03;70.11;96487.95;1788327;79;21698;-80
2021/03/08 06:47:00;;;;;;;38.70;24.50;;;;;;;-0.05;70.11;96490.59;1820128;79;21071;-80
2021/03/08 06:49:26;;;;;;;37.90;23.75;;;;;;;-0.11;70.40;96499.19;1820115;78;21109;-80
2021/03/08 06:52:08;;;;;;;32.58;22.95;;;;;;;-0.15;70.55;96498.60;1820100;79;21114;-80
2021/03/08 06:54:39;;;;;;;30.87;20.40;;;;;;;-0.13;71.27;96501.85;1820293;79;21118;-80
2021/03/08 06:57:24;;;;;;;41.28;26.52;;;;;;;-0.17;71.40;96509.83;1820282;79;21313;-80
2021/03/08 06:59:52;;;;;;;52.23;31.07;;;;;;;-0.18;71.72;96506.93;1749568;82;21122;-80
2021/03/08 07:02:18;;;;;;;51.02;34.05;;;;;;;-0.23;72.25;96509.83;1757461;82;21118;-80
2021/03/08 07:04:44;;;;;;;42.70;28.62;;;;;;;-0.19;72.57;96519.34;1721028;82;21146;-80
2021/03/08 07:07:13;;;;;;;41.90;27.98;;;;;;;-0.16;72.89;96519.15;1820356;79;21098;-80
2021/03/08 07:09:55;;;;;;;43.17;27.87;;;;;;;-0.17;73.03;96517.49;1750553;82;21122;-80
2021/03/08 07:12:22;;;;;;;52.33;38.75;;;;;;;-0.24;73.15;96518.41;1757151;82;21983;-80
2021/03/08 07:15:01;;;;;;;34.53;24.12;;;;;;;-0.24;73.32;96518.41;1750164;82;21133;-80
2021/03/08 07:17:36;;;;;;;111.35;64.95;;;;;;;-0.23;73.66;96523.88;1817257;79;21256;-80
2021/03/08 07:20:10;;;;;;;64.60;41.30;;;;;;;-0.29;73.64;96519.22;1820364;79;21079;-80
2021/03/08 07:22:46;;;;;;;87.75;61.63;;;;;;;-0.26;73.73;96522.83;1819444;79;21078;-80
2021/03/08 07:25:31;;;;;;;42.53;29.10;;;;;;;-0.20;73.89;96527.94;1781419;80;21400;-80
2021/03/08 07:27:59;;;;;;;42.27;31.93;;;;;;;-0.21;73.99;96525.03;1781630;80;21104;-80
2021/03/08 07:30:37;;;;;;;43.95;31.33;;;;;;;-0.24;73.90;96531.19;1781433;80;21253;-80
2021/03/08 07:33:11;;;;;;;36.95;26.15;;;;;;;-0.22;73.98;96536.98;1752202;80;21372;-80
2021/03/08 07:35:45;;;;;;;42.50;28.23;;;;;;;-0.17;74.07;96540.48;1781523;80;21106;-80
2021/03/08 07:38:16;;;;;;;43.45;29.37;;;;;;;-0.19;74.12;96540.59;1781229;80;21427;-80
2021/03/08 07:40:44;;;;;;;44.65;30.27;;;;;;;-0.15;74.31;96542.02;1780434;80;21257;-80
2021/03/08 07:43:21;;;;;;;43.45;28.57;;;;;;;-0.13;74.31;96547.02;1752024;80;21138;-80
2021/03/08 07:45:48;;;;;;;43.38;29.48;;;;;;;-0.14;74.30;96550.50;1727311;83;21388;-80
2021/03/08 07:48:16;;;;;;;43.48;29.10;;;;;;;-0.16;74.39;96545.50;1721325;82;21128;-79
2021/03/08 07:50:43;;;;;;;47.33;30.30;;;;;;;-0.17;74.37;96546.86;1788255;80;21223;-79
2021/03/08 07:53:36;;;;;;;44.30;29.72;;;;;;;-0.20;74.51;96549.64;1788568;80;21109;-79
2021/03/08 07:56:05;;;;;;;47.25;30.92;;;;;;;-0.17;74.74;96551.97;1788131;80;21263;-79
2021/03/08 07:58:34;;;;;;;45.83;31.35;;;;;;;-0.20;74.72;96547.91;1724152;83;21144;-79
2021/03/08 08:01:04;;;;;;;48.15;31.85;;;;;;;-0.16;74.95;96554.91;1787748;80;21128;-79
2021/03/08 08:03:30;;;;;;;46.45;32.50;;;;;;;-0.11;75.04;96558.74;1787326;80;21120;-79
2021/03/08 08:06:03;;;;;;;39.20;27.65;;;;;;;-0.05;74.99;96558.28;1788182;80;21231;-79
2021/03/08 08:08:30;;;;;;;47.25;31.95;;;;;;;-0.10;75.21;96559.09;1788209;80;21073;-79
2021/03/08 08:10:57;;;;;;;45.80;31.73;;;;;;;-0.17;75.13;96563.00;1788207;80;21073;-79
2021/03/08 08:13:45;;;;;;;45.88;31.95;;;;;;;-0.16;75.23;96563.37;1788083;80;21284;-79
2021/03/08 08:16:12;;;;;;;45.58;32.45;;;;;;;-0.11;75.35;96561.30;1788166;80;21311;-79
2021/03/08 08:18:44;;;;;;;46.13;32.45;;;;;;;-0.07;75.42;96566.52;1788173;80;21136;-79
2021/03/08 08:21:16;;;;;;;51.77;35.65;;;;;;;-0.03;75.41;96571.75;1724274;83;21333;-79
2021/03/08 08:23:44;;;;;;;110.03;72.12;;;;;;;0.02;75.39;96574.46;1788276;80;21109;-79
2021/03/08 08:26:12;;;;;;;54.80;37.17;;;;;;;0.07;75.55;96573.66;1788086;80;21120;-79
2021/03/08 08:28:46;;;;;;;51.08;35.92;;;;;;;0.06;75.28;96574.12;1787995;80;21117;-79
2021/03/08 08:31:12;;;;;;;75.25;51.18;;;;;;;0.02;75.29;96571.44;1788178;80;21105;-79
2021/03/08 08:33:38;;;;;;;98.97;68.05;;;;;;;0.03;75.39;96570.52;1788087;80;21228;-79
2021/03/08 08:36:21;;;;;;;62.60;39.58;;;;;;;0.08;75.50;96572.26;1787957;80;21248;-79
2021/03/08 08:39:03;;;;;;;63.35;42.05;;;;;;;0.11;75.51;96578.42;1787425;80;21129;-79
2021/03/08 08:41:32;;;;;;;48.80;31.60;;;;;;;0.06;75.43;96577.95;1787636;80;21243;-79
2021/03/08 08:44:13;;;;;;;68.02;42.45;;;;;;;0.00;75.38;96578.41;1787247;80;21371;-79
2021/03/08 08:46:46;;;;;;;69.92;43.05;;;;;;;0.00;75.72;96575.86;1787486;80;21117;-79
2021/03/08 08:49:16;;;;;;;69.87;42.65;;;;;;;-0.02;75.82;96577.67;1787502;80;21267;-79
2021/03/08 08:51:55;;;;;;;73.37;43.95;;;;;;;0.07;75.92;96576.20;1787592;80;21327;-79
2021/03/08 08:54:33;;;;;;;68.57;45.85;;;;;;;0.06;75.71;96581.78;1788086;80;21219;-79
2021/03/08 08:57:11;;;;;;;65.10;39.55;;;;;;;0.02;75.72;96581.66;1788003;80;21088;-79
2021/03/08 08:59:38;;;;;;;74.65;45.17;;;;;;;0.01;75.83;96585.61;1788123;80;21251;-79
2021/03/08 09:02:22;;;;;;;66.40;38.48;;;;;;;-0.09;75.85;96585.45;1757249;80;21104;-80
2021/03/08 09:04:47;;;;;;;66.70;41.92;;;;;;;-0.15;75.95;96584.63;1724093;83;21257;-80
2021/03/08 09:07:25;;;;;;;69.32;40.60;;;;;;;-0.17;76.06;96589.00;1757590;80;21251;-80
2021/03/08 09:09:55;;;;;;;78.50;44.33;;;;;;;-0.18;76.36;96591.20;1788346;80;21125;-80
2021/03/08 09:12:34;;;;;;;66.25;38.50;;;;;;;-0.19;76.24;96591.67;1785650;80;21089;-80
2021/03/08 09:15:08;;;;;;;37.10;22.73;;;;;;;-0.23;76.43;96592.82;1788132;80;21101;-80
2021/03/08 09:17:52;;;;;;;86.67;52.13;;;;;;;-0.27;76.50;96599.55;1788077;80;21105;-80
2021/03/08 09:20:27;;;;;;;78.52;47.17;;;;;;;-0.28;76.83;96595.36;1788011;80;21093;-80
2021/03/08 09:22:57;;;;;;;84.32;47.58;;;;;;;-0.25;76.56;96597.69;1787813;80;21110;-80
2021/03/08 09:25:32;;;;;;;83.22;51.90;;;;;;;-0.26;76.72;96594.78;1789429;80;21486;-80
2021/03/08 09:28:05;;;;;;;84.95;51.18;;;;;;;-0.26;76.74;96601.98;1796819;80;21097;-80
2021/03/08 09:30:41;;;;;;;84.70;51.15;;;;;;;-0.26;76.80;96602.45;1796611;80;21113;-80
2021/03/08 09:33:14;;;;;;;84.87;48.98;;;;;;;-0.17;76.88;96600.50;1796633;80;21100;-80
2021/03/08 09:35:48;;;;;;;71.30;44.63;;;;;;;-0.12;77.07;96601.81;1796718;80;21638;-80
2021/03/08 09:38:22;;;;;;;81.22;49.83;;;;;;;-0.12;76.77;96603.09;1796697;80;21251;-80
2021/03/08 09:40:51;;;;;;;82.12;50.60;;;;;;;-0.09;76.63;96604.61;1796700;80;21101;-80
2021/03/08 09:43:34;;;;;;;86.40;52.00;;;;;;;-0.07;76.63;96606.12;1796696;80;21279;-80
2021/03/08 09:46:10;;;;;;;83.75;51.60;;;;;;;-0.10;76.74;96604.25;1797019;79;21227;-80
2021/03/08 09:48:38;;;;;;;84.32;52.98;;;;;;;-0.11;77.07;96612.84;1796644;80;21328;-80
2021/03/08 09:51:13;;;;;;;82.57;52.40;;;;;;;-0.11;76.94;96611.56;1796847;80;21107;-80
2021/03/08 09:53:43;;;;;;;83.27;51.10;;;;;;;-0.09;76.87;96616.91;1796695;80;21234;-80
2021/03/08 09:56:12;;;;;;;85.35;51.02;;;;;;;-0.09;76.89;96620.74;1796854;80;21120;-80
2021/03/08 09:58:38;;;;;;;48.55;29.77;;;;;;;-0.06;76.81;96627.37;1796620;80;21109;-80
2021/03/08 10:01:17;;;;;;;61.53;36.48;;;;;;;-0.09;76.85;96627.59;1796665;79;21108;-80
2021/03/08 10:03:43;;;;;;;69.70;42.35;;;;;;;-0.10;77.31;96633.63;1796706;80;21092;-80
2021/03/08 10:06:30;;;;;;;75.37;48.40;;;;;;;-0.15;76.74;96640.81;1796713;80;21438;-80
2021/03/08 10:08:56;;;;;;;42.38;24.87;;;;;;;-0.14;76.72;96647.09;1796839;80;21304;-80
2021/03/08 10:11:28;;;;;;;77.60;45.10;;;;;;;-0.15;77.02;96649.29;1796687;80;21101;-80
2021/03/08 10:13:54;;;;;;;46.98;28.12;;;;;;;-0.21;76.67;96643.78;1796649;80;21219;-80
2021/03/08 10:16:26;;;;;;;77.95;46.65;;;;;;;-0.20;76.83;96651.34;1796650;80;21108;-80
2021/03/08 10:18:52;;;;;;;54.50;31.20;;;;;;;-0.18;76.87;96660.97;1742477;82;21208;-80
2021/03/08 10:21:20;;;;;;;59.95;39.42;;;;;;;-0.12;77.00;96661.84;1758748;81;21142;-80
2021/03/08 10:23:46;;;;;;;62.08;36.30;;;;;;;-0.12;76.73;96654.17;1758644;81;21104;-79
2021/03/08 10:26:15;;;;;;;67.42;41.48;;;;;;;-0.13;76.67;96656.38;1755249;81;21381;-79
2021/03/08 10:28:50;;;;;;;59.33;34.70;;;;;;;-0.16;76.85;96657.06;1749455;82;21282;-79
2021/03/08 10:31:21;;;;;;;40.95;24.72;;;;;;;-0.10;76.99;96656.16;1749944;82;21133;-79
2021/03/08 10:33:54;;;;;;;68.78;41.95;;;;;;;-0.04;76.85;96663.83;1787276;80;21908;-79
2021/03/08 10:36:23;;;;;;;75.85;45.03;;;;;;;-0.06;76.77;96664.41;1787324;80;21565;-79
2021/03/08 10:38:54;;;;;;;68.87;41.15;;;;;;;-0.01;76.82;96666.97;1787993;80;21101;-79
2021/03/08 10:41:21;;;;;;;71.95;43.40;;;;;;;0.03;76.81;96670.16;1788088;80;21077;-79
2021/03/08 10:43:47;;;;;;;50.75;30.17;;;;;;;0.08;76.69;96666.80;1788092;80;21100;-79
2021/03/08 10:46:13;;;;;;;58.65;35.05;;;;;;;0.17;76.62;96666.61;1788093;80;21309;-80
2021/03/08 10:48:59;;;;;;;56.48;35.38;;;;;;;0.18;76.13;96669.05;1788270;80;21117;-80
2021/03/08 10:51:26;;;;;;;62.30;36.60;;;;;;;0.25;76.09;96677.89;1788178;80;21113;-80
2021/03/08 10:54:04;;;;;;;54.63;33.67;;;;;;;0.19;75.88;96674.98;1788123;80;21069;-80
2021/03/08 10:56:32;;;;;;;60.15;38.80;;;;;;;0.25;76.08;96671.50;1788213;80;21121;-80
2021/03/08 10:58:59;;;;;;;60.83;39.27;;;;;;;0.50;76.10;96674.84;1788278;80;21212;-80
2021/03/08 11:01:26;;;;;;;63.10;37.83;;;;;;;0.83;75.75;96674.09;1788159;80;21073;-80
2021/03/08 11:03:53;;;;;;;65.60;39.27;;;;;;;1.15;75.55;96678.08;1788246;80;21137;-80
2021/03/08 11:06:20;;;;;;;58.87;37.98;;;;;;;1.53;74.85;96674.32;1788144;80;21077;-80
2021/03/08 11:09:02;;;;;;;60.60;37.00;;;;;;;1.84;74.11;96679.16;1788052;80;21129;-80
2021/03/08 11:11:30;;;;;;;;;;;;;;;2.03;73.83;96678.05;1789273;80;21238;-80
2021/03/08 11:13:59;;;;;;;66.95;42.83;;;;;;;2.34;73.71;96666.97;1787690;80;20230;-80
2021/03/08 11:16:25;;;;;;;63.92;39.90;;;;;;;2.46;72.72;96663.89;1787467;80;21335;-80
2021/03/08 11:18:51;;;;;;;53.08;35.90;;;;;;;2.56;72.20;96658.33;1787418;80;21136;-80
2021/03/08 11:21:31;;;;;;;54.70;35.38;;;;;;;2.76;71.52;96666.95;1731823;80;21152;-80
2021/03/08 11:24:22;;;;;;;50.43;32.90;;;;;;;2.81;71.35;96669.16;1787326;80;21143;-80
2021/03/08 11:27:20;;;;;;;41.30;27.60;;;;;;;2.97;69.67;96666.48;1782718;78;21359;-80
2021/03/08 11:30:07;;;;;;;45.10;27.67;;;;;;;3.20;69.46;96658.60;1778145;80;21097;-80
2021/03/08 11:32:35;;;;;;;41.18;28.10;;;;;;;3.23;69.03;96659.62;1778281;81;21121;-80
2021/03/08 11:35:01;;;;;;;42.53;29.57;;;;;;;3.37;68.73;96657.98;1778318;80;21096;-80
2021/03/08 11:37:30;;;;;;;38.83;25.97;;;;;;;3.34;68.37;96662.10;1778239;80;21073;-80